sensor_id;sensor_type;location;lat;lon;timestamp;pressure;altitude;pressure_sealevel;temperature;humidity
19236;BME280;9752;54.270;12.470;2022-10-31T00:04:22;102398.28;;;7.51;100.00
19236;BME280;9752;54.270;12.470;2022-10-31T00:09:24;102392.19;;;7.41;100.00
19236;BME280;9752;54.270;12.470;2022-10-31T00:14:25;102394.19;;;7.35;100.00
19236;BME280;9752;54.270;12.470;2022-10-31T00:19:29;102403.91;;;7.29;100.00
19236;BME280;9752;54.270;12.470;2022-10-31T00:24:31;102404.69;;;7.19;100.00
19236;BME280;9752;54.270;12.470;2022-10-31T00:29:32;102388.25;;;7.19;100.00
19236;BME280;9752;54.270;12.470;2022-10-31T00:34:35;102396.63;;;7.16;100.00
19236;BME280;9752;54.270;12.470;2022-10-31T00:39:38;102403.75;;;7.19;100.00
19236;BME280;9752;54.270;12.470;2022-10-31T00:44:40;102405.56;;;7.20;100.00
19236;BME280;9752;54.270;12.470;2022-10-31T00:49:43;102415.59;;;7.17;100.00
19236;BME280;9752;54.270;12.470;2022-10-31T00:54:45;102412.41;;;7.11;100.00
19236;BME280;9752;54.270;12.470;2022-10-31T00:59:46;102415.75;;;7.10;100.00
19236;BME280;9752;54.270;12.470;2022-10-31T01:04:49;102426.66;;;7.07;100.00
19236;BME280;9752;54.270;12.470;2022-10-31T01:09:51;102432.59;;;7.06;100.00
19236;BME280;9752;54.270;12.470;2022-10-31T01:14:53;102433.66;;;7.08;100.00
19236;BME280;9752;54.270;12.470;2022-10-31T01:19:56;102438.97;;;7.10;100.00
19236;BME280;9752;54.270;12.470;2022-10-31T01:25:01;102448.53;;;7.19;100.00
19236;BME280;9752;54.270;12.470;2022-10-31T01:30:04;102450.06;;;7.26;100.00
19236;BME280;9752;54.270;12.470;2022-10-31T01:35:08;102459.63;;;7.27;100.00
19236;BME280;9752;54.270;12.470;2022-10-31T01:40:10;102459.19;;;7.31;100.00
19236;BME280;9752;54.270;12.470;2022-10-31T01:45:13;102453.56;;;7.35;100.00
19236;BME280;9752;54.270;12.470;2022-10-31T01:50:26;102458.44;;;7.32;100.00
19236;BME280;9752;54.270;12.470;2022-10-31T01:55:32;102464.78;;;7.36;100.00
19236;BME280;9752;54.270;12.470;2022-10-31T02:00:36;102472.69;;;7.37;100.00
19236;BME280;9752;54.270;12.470;2022-10-31T02:05:41;102472.69;;;7.37;100.00
19236;BME280;9752;54.270;12.470;2022-10-31T02:10:44;102470.25;;;7.30;100.00
19236;BME280;9752;54.270;12.470;2022-10-31T02:15:49;102473.94;;;7.32;100.00
19236;BME280;9752;54.270;12.470;2022-10-31T02:21:00;102471.19;;;7.31;100.00
19236;BME280;9752;54.270;12.470;2022-10-31T02:26:24;102477.69;;;7.27;100.00
19236;BME280;9752;54.270;12.470;2022-10-31T02:31:34;102483.44;;;7.24;100.00
19236;BME280;9752;54.270;12.470;2022-10-31T02:36:44;102482.69;;;7.17;100.00
19236;BME280;9752;54.270;12.470;2022-10-31T02:41:54;102491.19;;;7.16;100.00
19236;BME280;9752;54.270;12.470;2022-10-31T02:47:01;102494.84;;;7.18;100.00
19236;BME280;9752;54.270;12.470;2022-10-31T02:52:14;102501.19;;;7.13;100.00
19236;BME280;9752;54.270;12.470;2022-10-31T02:57:21;102497.09;;;7.15;100.00
19236;BME280;9752;54.270;12.470;2022-10-31T03:02:38;102507.59;;;7.16;100.00
19236;BME280;9752;54.270;12.470;2022-10-31T03:07:51;102505.44;;;7.12;100.00
19236;BME280;9752;54.270;12.470;2022-10-31T03:13:00;102495.09;;;7.03;100.00
19236;BME280;9752;54.270;12.470;2022-10-31T03:18:08;102495.25;;;6.96;100.00
19236;BME280;9752;54.270;12.470;2022-10-31T03:23:13;102497.84;;;6.96;100.00
19236;BME280;9752;54.270;12.470;2022-10-31T03:28:16;102500.69;;;6.91;100.00
19236;BME280;9752;54.270;12.470;2022-10-31T03:33:26;102505.47;;;6.79;100.00
19236;BME280;9752;54.270;12.470;2022-10-31T03:38:31;102501.38;;;6.72;100.00
19236;BME280;9752;54.270;12.470;2022-10-31T03:43:38;102511.38;;;6.69;100.00
19236;BME280;9752;54.270;12.470;2022-10-31T03:48:44;102526.53;;;6.66;100.00
19236;BME280;9752;54.270;12.470;2022-10-31T03:53:50;102522.72;;;6.62;100.00
19236;BME280;9752;54.270;12.470;2022-10-31T03:59:01;102525.88;;;6.60;100.00
19236;BME280;9752;54.270;12.470;2022-10-31T04:04:07;102517.56;;;6.62;100.00
19236;BME280;9752;54.270;12.470;2022-10-31T04:09:09;102526.38;;;6.64;100.00
19236;BME280;9752;54.270;12.470;2022-10-31T04:14:12;102535.34;;;6.68;100.00
19236;BME280;9752;54.270;12.470;2022-10-31T04:19:15;102538.50;;;6.65;100.00
19236;BME280;9752;54.270;12.470;2022-10-31T04:24:17;102547.75;;;6.63;100.00
19236;BME280;9752;54.270;12.470;2022-10-31T04:29:19;102550.75;;;6.59;100.00
19236;BME280;9752;54.270;12.470;2022-10-31T04:34:22;102535.41;;;6.52;100.00
19236;BME280;9752;54.270;12.470;2022-10-31T04:39:24;102536.16;;;6.51;100.00
19236;BME280;9752;54.270;12.470;2022-10-31T04:44:46;102549.50;;;6.47;100.00
19236;BME280;9752;54.270;12.470;2022-10-31T04:49:50;102543.41;;;6.47;100.00
19236;BME280;9752;54.270;12.470;2022-10-31T04:54:52;102539.75;;;6.44;100.00
19236;BME280;9752;54.270;12.470;2022-10-31T05:00:26;102549.06;;;6.51;100.00
19236;BME280;9752;54.270;12.470;2022-10-31T05:05:31;102543.00;;;6.51;100.00
19236;BME280;9752;54.270;12.470;2022-10-31T05:10:35;102551.31;;;6.48;100.00
19236;BME280;9752;54.270;12.470;2022-10-31T05:15:38;102561.94;;;6.51;100.00
19236;BME280;9752;54.270;12.470;2022-10-31T05:21:00;102570.72;;;6.78;100.00
19236;BME280;9752;54.270;12.470;2022-10-31T05:26:09;102586.78;;;7.09;100.00
19236;BME280;9752;54.270;12.470;2022-10-31T05:31:11;102600.06;;;7.29;100.00
19236;BME280;9752;54.270;12.470;2022-10-31T05:36:14;102603.91;;;7.41;100.00
19236;BME280;9752;54.270;12.470;2022-10-31T05:41:26;102598.97;;;7.69;100.00
19236;BME280;9752;54.270;12.470;2022-10-31T05:46:36;102614.00;;;7.91;100.00
19236;BME280;9752;54.270;12.470;2022-10-31T05:51:45;102618.13;;;8.06;100.00
19236;BME280;9752;54.270;12.470;2022-10-31T05:56:48;102624.66;;;8.11;100.00
19236;BME280;9752;54.270;12.470;2022-10-31T06:01:49;102626.03;;;8.25;100.00
19236;BME280;9752;54.270;12.470;2022-10-31T06:07:05;102636.38;;;8.34;100.00
19236;BME280;9752;54.270;12.470;2022-10-31T06:12:07;102646.59;;;8.58;100.00
19236;BME280;9752;54.270;12.470;2022-10-31T06:17:41;102651.41;;;8.90;100.00
19236;BME280;9752;54.270;12.470;2022-10-31T06:22:58;102652.69;;;9.13;100.00
19236;BME280;9752;54.270;12.470;2022-10-31T06:28:00;102670.59;;;9.37;100.00
19236;BME280;9752;54.270;12.470;2022-10-31T06:33:22;102669.31;;;9.43;100.00
19236;BME280;9752;54.270;12.470;2022-10-31T06:38:35;102684.59;;;9.67;100.00
19236;BME280;9752;54.270;12.470;2022-10-31T06:43:40;102685.75;;;9.80;100.00
19236;BME280;9752;54.270;12.470;2022-10-31T06:49:08;102687.75;;;10.01;100.00
19236;BME280;9752;54.270;12.470;2022-10-31T06:54:25;102694.63;;;10.20;100.00
19236;BME280;9752;54.270;12.470;2022-10-31T06:59:28;102713.50;;;10.27;100.00
19236;BME280;9752;54.270;12.470;2022-10-31T07:04:52;102715.69;;;10.23;100.00
19236;BME280;9752;54.270;12.470;2022-10-31T07:09:55;102706.63;;;10.28;100.00
19236;BME280;9752;54.270;12.470;2022-10-31T07:15:13;102719.56;;;10.55;100.00
19236;BME280;9752;54.270;12.470;2022-10-31T07:20:15;102729.66;;;10.71;100.00
19236;BME280;9752;54.270;12.470;2022-10-31T07:25:18;102733.19;;;10.72;100.00
19236;BME280;9752;54.270;12.470;2022-10-31T07:30:38;102736.56;;;10.81;100.00
19236;BME280;9752;54.270;12.470;2022-10-31T07:35:42;102741.63;;;10.99;100.00
19236;BME280;9752;54.270;12.470;2022-10-31T07:40:51;102745.31;;;11.11;100.00
19236;BME280;9752;54.270;12.470;2022-10-31T07:45:54;102748.66;;;11.29;100.00
19236;BME280;9752;54.270;12.470;2022-10-31T07:51:14;102756.47;;;11.39;100.00
19236;BME280;9752;54.270;12.470;2022-10-31T07:56:49;102749.91;;;11.63;100.00
19236;BME280;9752;54.270;12.470;2022-10-31T08:01:50;102759.84;;;11.88;100.00
19236;BME280;9752;54.270;12.470;2022-10-31T08:07:15;102768.88;;;12.22;100.00
19236;BME280;9752;54.270;12.470;2022-10-31T08:12:25;102775.25;;;12.46;100.00
19236;BME280;9752;54.270;12.470;2022-10-31T08:17:27;102771.94;;;12.80;100.00
19236;BME280;9752;54.270;12.470;2022-10-31T08:22:32;102793.00;;;13.03;100.00
19236;BME280;9752;54.270;12.470;2022-10-31T08:27:36;102795.56;;;13.14;100.00
19236;BME280;9752;54.270;12.470;2022-10-31T08:32:38;102795.69;;;13.15;100.00
19236;BME280;9752;54.270;12.470;2022-10-31T08:38:06;102792.28;;;13.16;100.00
19236;BME280;9752;54.270;12.470;2022-10-31T08:43:11;102812.63;;;13.31;100.00
19236;BME280;9752;54.270;12.470;2022-10-31T08:48:15;102823.00;;;13.41;100.00
19236;BME280;9752;54.270;12.470;2022-10-31T08:53:18;102841.78;;;13.37;100.00
19236;BME280;9752;54.270;12.470;2022-10-31T08:58:29;102842.59;;;13.68;100.00
19236;BME280;9752;54.270;12.470;2022-10-31T09:03:35;102836.81;;;13.72;100.00
19236;BME280;9752;54.270;12.470;2022-10-31T09:08:37;102837.09;;;13.65;100.00
19236;BME280;9752;54.270;12.470;2022-10-31T09:13:40;102824.91;;;13.54;100.00
19236;BME280;9752;54.270;12.470;2022-10-31T09:19:01;102825.72;;;13.75;100.00
19236;BME280;9752;54.270;12.470;2022-10-31T09:24:03;102836.16;;;13.75;100.00
19236;BME280;9752;54.270;12.470;2022-10-31T09:29:07;102822.13;;;13.62;100.00
19236;BME280;9752;54.270;12.470;2022-10-31T09:34:10;102823.59;;;13.48;100.00
19236;BME280;9752;54.270;12.470;2022-10-31T09:39:11;102828.31;;;13.53;100.00
19236;BME280;9752;54.270;12.470;2022-10-31T09:44:20;102822.84;;;13.50;100.00
19236;BME280;9752;54.270;12.470;2022-10-31T09:49:48;102820.44;;;13.63;100.00
19236;BME280;9752;54.270;12.470;2022-10-31T09:54:57;102832.94;;;13.67;100.00
19236;BME280;9752;54.270;12.470;2022-10-31T10:00:04;102835.31;;;13.64;100.00
19236;BME280;9752;54.270;12.470;2022-10-31T10:05:18;102845.84;;;13.65;100.00
19236;BME280;9752;54.270;12.470;2022-10-31T10:10:26;102843.78;;;13.61;100.00
19236;BME280;9752;54.270;12.470;2022-10-31T10:16:17;102837.53;;;13.59;100.00
19236;BME280;9752;54.270;12.470;2022-10-31T10:21:30;102829.53;;;13.68;100.00
19236;BME280;9752;54.270;12.470;2022-10-31T10:26:36;102816.66;;;13.59;100.00
19236;BME280;9752;54.270;12.470;2022-10-31T10:31:42;102805.47;;;13.60;100.00
19236;BME280;9752;54.270;12.470;2022-10-31T10:36:51;102811.56;;;13.61;100.00
19236;BME280;9752;54.270;12.470;2022-10-31T10:41:57;102802.81;;;13.93;100.00
19236;BME280;9752;54.270;12.470;2022-10-31T10:47:19;102799.91;;;13.67;100.00
19236;BME280;9752;54.270;12.470;2022-10-31T10:52:45;102795.34;;;13.43;100.00
19236;BME280;9752;54.270;12.470;2022-10-31T10:57:55;102794.72;;;13.45;100.00
19236;BME280;9752;54.270;12.470;2022-10-31T11:02:58;102790.19;;;13.33;100.00
19236;BME280;9752;54.270;12.470;2022-10-31T11:08:00;102792.78;;;13.33;100.00
19236;BME280;9752;54.270;12.470;2022-10-31T11:13:19;102777.53;;;13.27;100.00
19236;BME280;9752;54.270;12.470;2022-10-31T11:18:25;102779.47;;;13.40;100.00
19236;BME280;9752;54.270;12.470;2022-10-31T11:23:28;102772.75;;;13.54;100.00
19236;BME280;9752;54.270;12.470;2022-10-31T11:28:38;102747.59;;;13.54;100.00
19236;BME280;9752;54.270;12.470;2022-10-31T11:33:45;102739.03;;;13.67;100.00
19236;BME280;9752;54.270;12.470;2022-10-31T11:38:48;102726.44;;;13.61;100.00
19236;BME280;9752;54.270;12.470;2022-10-31T11:43:54;102709.63;;;13.58;100.00
19236;BME280;9752;54.270;12.470;2022-10-31T11:48:57;102715.69;;;13.69;100.00
19236;BME280;9752;54.270;12.470;2022-10-31T11:54:00;102699.94;;;13.67;100.00
19236;BME280;9752;54.270;12.470;2022-10-31T11:59:05;102699.31;;;13.59;100.00
19236;BME280;9752;54.270;12.470;2022-10-31T12:04:09;102694.75;;;13.45;100.00
19236;BME280;9752;54.270;12.470;2022-10-31T12:09:19;102694.91;;;13.58;100.00
19236;BME280;9752;54.270;12.470;2022-10-31T12:14:33;102681.16;;;13.49;100.00
19236;BME280;9752;54.270;12.470;2022-10-31T12:19:42;102678.94;;;13.21;100.00
19236;BME280;9752;54.270;12.470;2022-10-31T12:24:56;102661.81;;;13.03;100.00
19236;BME280;9752;54.270;12.470;2022-10-31T12:30:15;102662.00;;;13.16;100.00
19236;BME280;9752;54.270;12.470;2022-10-31T12:35:25;102662.75;;;13.36;100.00
19236;BME280;9752;54.270;12.470;2022-10-31T12:40:42;102654.75;;;13.12;100.00
19236;BME280;9752;54.270;12.470;2022-10-31T12:45:55;102656.44;;;13.12;100.00
19236;BME280;9752;54.270;12.470;2022-10-31T12:51:03;102645.84;;;12.88;100.00
19236;BME280;9752;54.270;12.470;2022-10-31T12:56:23;102638.44;;;12.93;100.00
19236;BME280;9752;54.270;12.470;2022-10-31T13:01:32;102640.13;;;13.14;100.00
19236;BME280;9752;54.270;12.470;2022-10-31T13:06:39;102639.06;;;13.22;100.00
19236;BME280;9752;54.270;12.470;2022-10-31T13:11:46;102643.59;;;13.25;100.00
19236;BME280;9752;54.270;12.470;2022-10-31T13:16:51;102642.91;;;13.38;100.00
19236;BME280;9752;54.270;12.470;2022-10-31T13:21:59;102632.97;;;13.44;100.00
19236;BME280;9752;54.270;12.470;2022-10-31T13:27:13;102627.41;;;13.29;100.00
19236;BME280;9752;54.270;12.470;2022-10-31T13:32:16;102625.88;;;13.31;100.00
19236;BME280;9752;54.270;12.470;2022-10-31T13:37:23;102631.91;;;13.20;100.00
19236;BME280;9752;54.270;12.470;2022-10-31T13:42:39;102624.50;;;13.14;100.00
19236;BME280;9752;54.270;12.470;2022-10-31T13:47:55;102616.88;;;13.05;100.00
19236;BME280;9752;54.270;12.470;2022-10-31T13:53:10;102620.25;;;13.04;100.00
19236;BME280;9752;54.270;12.470;2022-10-31T13:58:24;102620.06;;;12.91;100.00
19236;BME280;9752;54.270;12.470;2022-10-31T14:03:28;102625.13;;;13.00;100.00
19236;BME280;9752;54.270;12.470;2022-10-31T14:08:33;102634.88;;;13.02;100.00
19236;BME280;9752;54.270;12.470;2022-10-31T14:13:41;102630.56;;;12.81;100.00
19236;BME280;9752;54.270;12.470;2022-10-31T14:18:48;102628.97;;;13.05;100.00
19236;BME280;9752;54.270;12.470;2022-10-31T14:23:52;102620.69;;;12.77;100.00
19236;BME280;9752;54.270;12.470;2022-10-31T14:28:55;102631.38;;;12.69;100.00
19236;BME280;9752;54.270;12.470;2022-10-31T14:33:59;102640.78;;;12.89;100.00
19236;BME280;9752;54.270;12.470;2022-10-31T14:39:04;102632.84;;;12.88;100.00
19236;BME280;9752;54.270;12.470;2022-10-31T14:44:21;102631.75;;;12.74;100.00
19236;BME280;9752;54.270;12.470;2022-10-31T14:49:38;102635.06;;;12.51;100.00
19236;BME280;9752;54.270;12.470;2022-10-31T14:54:50;102632.75;;;12.44;100.00
19236;BME280;9752;54.270;12.470;2022-10-31T14:59:56;102631.44;;;12.49;100.00
19236;BME280;9752;54.270;12.470;2022-10-31T15:05:05;102642.41;;;12.45;100.00
19236;BME280;9752;54.270;12.470;2022-10-31T15:10:20;102635.84;;;12.50;100.00
19236;BME280;9752;54.270;12.470;2022-10-31T15:15:24;102637.28;;;12.57;100.00
19236;BME280;9752;54.270;12.470;2022-10-31T15:20:30;102636.75;;;12.61;100.00
19236;BME280;9752;54.270;12.470;2022-10-31T15:25:33;102632.06;;;12.57;100.00
19236;BME280;9752;54.270;12.470;2022-10-31T15:30:36;102631.81;;;12.54;100.00
19236;BME280;9752;54.270;12.470;2022-10-31T15:35:39;102631.97;;;12.45;100.00
19236;BME280;9752;54.270;12.470;2022-10-31T15:40:54;102624.59;;;12.29;100.00
19236;BME280;9752;54.270;12.470;2022-10-31T15:45:57;102628.00;;;12.28;100.00
19236;BME280;9752;54.270;12.470;2022-10-31T15:51:02;102632.94;;;12.25;100.00
19236;BME280;9752;54.270;12.470;2022-10-31T15:56:06;102638.16;;;12.15;100.00
19236;BME280;9752;54.270;12.470;2022-10-31T16:01:20;102641.81;;;12.17;100.00
19236;BME280;9752;54.270;12.470;2022-10-31T16:06:24;102638.41;;;12.28;100.00
19236;BME280;9752;54.270;12.470;2022-10-31T16:11:32;102645.94;;;12.25;100.00
19236;BME280;9752;54.270;12.470;2022-10-31T16:16:41;102635.53;;;12.25;100.00
19236;BME280;9752;54.270;12.470;2022-10-31T16:21:45;102633.81;;;12.25;100.00
19236;BME280;9752;54.270;12.470;2022-10-31T16:26:49;102633.44;;;12.31;100.00
19236;BME280;9752;54.270;12.470;2022-10-31T16:31:52;102643.72;;;12.29;100.00
19236;BME280;9752;54.270;12.470;2022-10-31T16:36:55;102640.47;;;12.32;100.00
19236;BME280;9752;54.270;12.470;2022-10-31T16:41:57;102637.50;;;12.27;100.00
19236;BME280;9752;54.270;12.470;2022-10-31T16:47:17;102630.47;;;12.26;100.00
19236;BME280;9752;54.270;12.470;2022-10-31T16:52:20;102624.22;;;12.24;100.00
19236;BME280;9752;54.270;12.470;2022-10-31T16:57:28;102607.44;;;12.21;100.00
19236;BME280;9752;54.270;12.470;2022-10-31T17:02:31;102606.16;;;12.26;100.00
19236;BME280;9752;54.270;12.470;2022-10-31T17:07:34;102614.97;;;12.28;100.00
19236;BME280;9752;54.270;12.470;2022-10-31T17:12:36;102616.56;;;12.26;100.00
19236;BME280;9752;54.270;12.470;2022-10-31T17:17:39;102614.72;;;12.25;100.00
19236;BME280;9752;54.270;12.470;2022-10-31T17:22:42;102614.44;;;12.32;100.00
19236;BME280;9752;54.270;12.470;2022-10-31T17:27:43;102608.22;;;12.30;100.00
19236;BME280;9752;54.270;12.470;2022-10-31T17:32:46;102600.13;;;12.27;100.00
19236;BME280;9752;54.270;12.470;2022-10-31T17:37:49;102596.91;;;12.29;100.00
19236;BME280;9752;54.270;12.470;2022-10-31T17:42:53;102587.13;;;12.37;100.00
19236;BME280;9752;54.270;12.470;2022-10-31T17:47:55;102593.91;;;12.35;100.00
19236;BME280;9752;54.270;12.470;2022-10-31T17:52:58;102603.00;;;12.30;100.00
19236;BME280;9752;54.270;12.470;2022-10-31T17:57:59;102598.06;;;12.23;100.00
19236;BME280;9752;54.270;12.470;2022-10-31T18:03:01;102588.16;;;12.29;100.00
19236;BME280;9752;54.270;12.470;2022-10-31T18:08:04;102579.84;;;12.33;100.00
19236;BME280;9752;54.270;12.470;2022-10-31T18:13:06;102586.59;;;12.31;100.00
19236;BME280;9752;54.270;12.470;2022-10-31T18:18:08;102576.09;;;12.29;100.00
19236;BME280;9752;54.270;12.470;2022-10-31T18:23:11;102567.34;;;12.29;100.00
19236;BME280;9752;54.270;12.470;2022-10-31T18:28:13;102559.44;;;12.27;100.00
19236;BME280;9752;54.270;12.470;2022-10-31T18:33:14;102558.50;;;12.27;100.00
19236;BME280;9752;54.270;12.470;2022-10-31T18:38:17;102558.78;;;12.30;100.00
19236;BME280;9752;54.270;12.470;2022-10-31T18:43:19;102564.75;;;12.29;100.00
19236;BME280;9752;54.270;12.470;2022-10-31T18:48:21;102552.66;;;12.29;100.00
19236;BME280;9752;54.270;12.470;2022-10-31T18:53:24;102544.97;;;12.31;100.00
19236;BME280;9752;54.270;12.470;2022-10-31T18:58:27;102547.34;;;12.28;100.00
19236;BME280;9752;54.270;12.470;2022-10-31T19:03:29;102550.16;;;12.31;100.00
19236;BME280;9752;54.270;12.470;2022-10-31T19:08:32;102546.78;;;12.32;100.00
19236;BME280;9752;54.270;12.470;2022-10-31T19:13:35;102538.84;;;12.30;100.00
19236;BME280;9752;54.270;12.470;2022-10-31T19:18:37;102534.56;;;12.31;100.00
19236;BME280;9752;54.270;12.470;2022-10-31T19:23:40;102530.03;;;12.28;100.00
19236;BME280;9752;54.270;12.470;2022-10-31T19:28:42;102515.31;;;12.29;100.00
19236;BME280;9752;54.270;12.470;2022-10-31T19:33:44;102510.91;;;12.28;100.00
19236;BME280;9752;54.270;12.470;2022-10-31T19:38:49;102510.91;;;12.28;100.00
19236;BME280;9752;54.270;12.470;2022-10-31T19:43:51;102518.16;;;12.32;100.00
19236;BME280;9752;54.270;12.470;2022-10-31T19:48:53;102522.84;;;12.36;100.00
19236;BME280;9752;54.270;12.470;2022-10-31T19:53:57;102527.81;;;12.33;100.00
19236;BME280;9752;54.270;12.470;2022-10-31T19:58:59;102516.06;;;12.38;100.00
19236;BME280;9752;54.270;12.470;2022-10-31T20:04:03;102532.97;;;12.43;100.00
19236;BME280;9752;54.270;12.470;2022-10-31T20:09:08;102539.19;;;12.45;100.00
19236;BME280;9752;54.270;12.470;2022-10-31T20:14:14;102536.72;;;12.47;100.00
19236;BME280;9752;54.270;12.470;2022-10-31T20:19:16;102531.88;;;12.52;100.00
19236;BME280;9752;54.270;12.470;2022-10-31T20:24:19;102533.56;;;12.51;100.00
19236;BME280;9752;54.270;12.470;2022-10-31T20:29:21;102533.94;;;12.56;100.00
19236;BME280;9752;54.270;12.470;2022-10-31T20:34:22;102529.66;;;12.56;100.00
19236;BME280;9752;54.270;12.470;2022-10-31T20:39:26;102537.81;;;12.61;100.00
19236;BME280;9752;54.270;12.470;2022-10-31T20:44:28;102527.66;;;12.64;100.00
19236;BME280;9752;54.270;12.470;2022-10-31T20:49:29;102529.09;;;12.60;100.00
19236;BME280;9752;54.270;12.470;2022-10-31T20:54:32;102536.25;;;12.63;100.00
19236;BME280;9752;54.270;12.470;2022-10-31T20:59:34;102534.78;;;12.66;100.00
19236;BME280;9752;54.270;12.470;2022-10-31T21:04:36;102530.47;;;12.67;100.00
19236;BME280;9752;54.270;12.470;2022-10-31T21:09:39;102510.59;;;12.67;100.00
19236;BME280;9752;54.270;12.470;2022-10-31T21:14:41;102506.16;;;12.66;100.00
19236;BME280;9752;54.270;12.470;2022-10-31T21:19:43;102501.97;;;12.68;100.00
19236;BME280;9752;54.270;12.470;2022-10-31T21:24:46;102498.81;;;12.73;100.00
19236;BME280;9752;54.270;12.470;2022-10-31T21:29:48;102485.16;;;12.75;100.00
19236;BME280;9752;54.270;12.470;2022-10-31T21:34:50;102503.59;;;12.78;100.00
19236;BME280;9752;54.270;12.470;2022-10-31T21:39:53;102483.69;;;12.79;100.00
19236;BME280;9752;54.270;12.470;2022-10-31T21:44:54;102472.34;;;12.78;100.00
19236;BME280;9752;54.270;12.470;2022-10-31T21:49:56;102481.19;;;12.80;100.00
19236;BME280;9752;54.270;12.470;2022-10-31T21:54:59;102471.03;;;12.83;100.00
19236;BME280;9752;54.270;12.470;2022-10-31T22:00:01;102471.81;;;12.82;100.00
19236;BME280;9752;54.270;12.470;2022-10-31T22:05:06;102449.28;;;12.83;100.00
19236;BME280;9752;54.270;12.470;2022-10-31T22:10:09;102452.50;;;12.91;100.00
19236;BME280;9752;54.270;12.470;2022-10-31T22:15:11;102450.66;;;12.89;100.00
19236;BME280;9752;54.270;12.470;2022-10-31T22:20:13;102441.81;;;12.87;100.00
19236;BME280;9752;54.270;12.470;2022-10-31T22:25:16;102461.88;;;12.88;100.00
19236;BME280;9752;54.270;12.470;2022-10-31T22:30:17;102453.81;;;12.85;100.00
19236;BME280;9752;54.270;12.470;2022-10-31T22:35:19;102437.06;;;12.82;100.00
19236;BME280;9752;54.270;12.470;2022-10-31T22:40:22;102428.91;;;12.77;100.00
19236;BME280;9752;54.270;12.470;2022-10-31T22:45:24;102417.47;;;12.75;100.00
19236;BME280;9752;54.270;12.470;2022-10-31T22:50:26;102407.34;;;12.68;100.00
19236;BME280;9752;54.270;12.470;2022-10-31T22:55:29;102399.53;;;12.68;100.00
19236;BME280;9752;54.270;12.470;2022-10-31T23:00:30;102392.75;;;12.70;100.00
19236;BME280;9752;54.270;12.470;2022-10-31T23:05:32;102387.63;;;12.60;100.00
19236;BME280;9752;54.270;12.470;2022-10-31T23:10:35;102379.69;;;12.58;100.00
19236;BME280;9752;54.270;12.470;2022-10-31T23:15:40;102371.06;;;12.47;100.00
19236;BME280;9752;54.270;12.470;2022-10-31T23:20:42;102365.84;;;12.47;100.00
19236;BME280;9752;54.270;12.470;2022-10-31T23:25:45;102372.06;;;12.49;100.00
19236;BME280;9752;54.270;12.470;2022-10-31T23:31:04;102380.69;;;12.48;100.00
19236;BME280;9752;54.270;12.470;2022-10-31T23:36:06;102381.66;;;12.39;100.00
19236;BME280;9752;54.270;12.470;2022-10-31T23:41:09;102385.16;;;12.39;100.00
19236;BME280;9752;54.270;12.470;2022-10-31T23:46:11;102366.69;;;12.36;100.00
19236;BME280;9752;54.270;12.470;2022-10-31T23:51:13;102345.72;;;12.23;100.00
19236;BME280;9752;54.270;12.470;2022-10-31T23:56:16;102338.94;;;12.25;100.00
